sensor_id;sensor_type;location;lat;lon;timestamp;P1;durP1;ratioP1;P2;durP2;ratioP2
15230;SDS011;32569;51.762;8.564;2023-05-20T00:01:32;6.20;;;2.80;;
15230;SDS011;32569;51.762;8.564;2023-05-20T00:03:59;2.73;;;2.53;;
15230;SDS011;32569;51.762;8.564;2023-05-20T00:06:25;2.47;;;2.13;;
15230;SDS011;32569;51.762;8.564;2023-05-20T00:08:52;3.00;;;2.70;;
15230;SDS011;32569;51.762;8.564;2023-05-20T00:11:19;3.60;;;2.50;;
15230;SDS011;32569;51.762;8.564;2023-05-20T00:13:46;2.83;;;2.30;;
15230;SDS011;32569;51.762;8.564;2023-05-20T00:16:14;3.63;;;2.60;;
15230;SDS011;32569;51.762;8.564;2023-05-20T00:18:40;2.50;;;2.27;;
15230;SDS011;32569;51.762;8.564;2023-05-20T00:21:07;2.90;;;2.70;;
15230;SDS011;32569;51.762;8.564;2023-05-20T00:23:34;2.93;;;2.40;;
15230;SDS011;32569;51.762;8.564;2023-05-20T00:26:00;3.30;;;2.50;;
15230;SDS011;32569;51.762;8.564;2023-05-20T00:28:27;2.80;;;2.50;;
15230;SDS011;32569;51.762;8.564;2023-05-20T00:30:54;3.97;;;2.60;;
15230;SDS011;32569;51.762;8.564;2023-05-20T00:33:25;2.43;;;2.23;;
15230;SDS011;32569;51.762;8.564;2023-05-20T00:35:52;2.53;;;2.30;;
15230;SDS011;32569;51.762;8.564;2023-05-20T00:38:18;4.30;;;2.60;;
15230;SDS011;32569;51.762;8.564;2023-05-20T00:40:45;2.50;;;2.30;;
15230;SDS011;32569;51.762;8.564;2023-05-20T00:43:11;2.93;;;2.33;;
15230;SDS011;32569;51.762;8.564;2023-05-20T00:45:41;2.83;;;2.27;;
15230;SDS011;32569;51.762;8.564;2023-05-20T00:48:08;3.47;;;2.63;;
15230;SDS011;32569;51.762;8.564;2023-05-20T00:50:36;2.60;;;2.40;;
15230;SDS011;32569;51.762;8.564;2023-05-20T00:53:02;3.63;;;2.40;;
15230;SDS011;32569;51.762;8.564;2023-05-20T00:55:30;3.27;;;2.77;;
15230;SDS011;32569;51.762;8.564;2023-05-20T00:57:57;2.77;;;2.30;;
15230;SDS011;32569;51.762;8.564;2023-05-20T01:00:24;2.80;;;2.20;;
15230;SDS011;32569;51.762;8.564;2023-05-20T01:02:54;2.50;;;2.30;;
15230;SDS011;32569;51.762;8.564;2023-05-20T01:05:21;4.03;;;2.50;;
15230;SDS011;32569;51.762;8.564;2023-05-20T01:07:49;2.70;;;2.50;;
15230;SDS011;32569;51.762;8.564;2023-05-20T01:10:16;3.47;;;2.37;;
15230;SDS011;32569;51.762;8.564;2023-05-20T01:12:43;3.70;;;2.23;;
15230;SDS011;32569;51.762;8.564;2023-05-20T01:15:14;3.43;;;2.63;;
15230;SDS011;32569;51.762;8.564;2023-05-20T01:17:42;3.67;;;2.80;;
15230;SDS011;32569;51.762;8.564;2023-05-20T01:20:16;3.70;;;2.40;;
15230;SDS011;32569;51.762;8.564;2023-05-20T01:22:49;2.60;;;2.40;;
15230;SDS011;32569;51.762;8.564;2023-05-20T01:25:18;2.90;;;2.47;;
15230;SDS011;32569;51.762;8.564;2023-05-20T01:27:45;3.20;;;2.40;;
15230;SDS011;32569;51.762;8.564;2023-05-20T01:30:12;2.73;;;2.10;;
15230;SDS011;32569;51.762;8.564;2023-05-20T01:32:40;2.73;;;2.53;;
15230;SDS011;32569;51.762;8.564;2023-05-20T01:35:08;2.83;;;2.60;;
15230;SDS011;32569;51.762;8.564;2023-05-20T01:37:37;2.67;;;2.47;;
15230;SDS011;32569;51.762;8.564;2023-05-20T01:40:07;2.73;;;2.53;;
15230;SDS011;32569;51.762;8.564;2023-05-20T01:42:37;2.90;;;2.70;;
15230;SDS011;32569;51.762;8.564;2023-05-20T01:45:05;3.40;;;2.60;;
15230;SDS011;32569;51.762;8.564;2023-05-20T01:47:32;3.17;;;2.40;;
15230;SDS011;32569;51.762;8.564;2023-05-20T01:49:59;3.07;;;2.47;;
15230;SDS011;32569;51.762;8.564;2023-05-20T01:52:25;2.57;;;2.37;;
15230;SDS011;32569;51.762;8.564;2023-05-20T01:54:52;2.80;;;2.50;;
15230;SDS011;32569;51.762;8.564;2023-05-20T01:57:20;2.90;;;2.70;;
15230;SDS011;32569;51.762;8.564;2023-05-20T01:59:48;2.90;;;2.60;;
15230;SDS011;32569;51.762;8.564;2023-05-20T02:02:15;3.73;;;2.53;;
15230;SDS011;32569;51.762;8.564;2023-05-20T02:04:41;3.50;;;3.13;;
15230;SDS011;32569;51.762;8.564;2023-05-20T02:07:11;2.57;;;2.37;;
15230;SDS011;32569;51.762;8.564;2023-05-20T02:09:38;3.77;;;2.80;;
15230;SDS011;32569;51.762;8.564;2023-05-20T02:12:05;2.97;;;2.70;;
15230;SDS011;32569;51.762;8.564;2023-05-20T02:14:33;5.27;;;2.60;;
15230;SDS011;32569;51.762;8.564;2023-05-20T02:17:00;2.67;;;2.47;;
15230;SDS011;32569;51.762;8.564;2023-05-20T02:19:28;3.53;;;3.00;;
15230;SDS011;32569;51.762;8.564;2023-05-20T02:21:54;3.30;;;3.00;;
15230;SDS011;32569;51.762;8.564;2023-05-20T02:24:21;3.10;;;2.73;;
15230;SDS011;32569;51.762;8.564;2023-05-20T02:26:47;3.37;;;2.80;;
15230;SDS011;32569;51.762;8.564;2023-05-20T02:29:15;3.07;;;2.83;;
15230;SDS011;32569;51.762;8.564;2023-05-20T02:31:43;5.47;;;2.87;;
15230;SDS011;32569;51.762;8.564;2023-05-20T02:34:10;3.37;;;3.07;;
15230;SDS011;32569;51.762;8.564;2023-05-20T02:36:36;3.00;;;2.63;;
15230;SDS011;32569;51.762;8.564;2023-05-20T02:39:03;3.17;;;2.87;;
15230;SDS011;32569;51.762;8.564;2023-05-20T02:41:29;3.00;;;2.80;;
15230;SDS011;32569;51.762;8.564;2023-05-20T02:43:56;4.47;;;2.67;;
15230;SDS011;32569;51.762;8.564;2023-05-20T02:46:23;3.17;;;2.87;;
15230;SDS011;32569;51.762;8.564;2023-05-20T02:48:50;3.20;;;2.90;;
15230;SDS011;32569;51.762;8.564;2023-05-20T02:51:17;4.63;;;2.80;;
15230;SDS011;32569;51.762;8.564;2023-05-20T02:53:44;3.13;;;2.50;;
15230;SDS011;32569;51.762;8.564;2023-05-20T02:56:11;2.73;;;2.50;;
15230;SDS011;32569;51.762;8.564;2023-05-20T02:58:38;3.27;;;2.90;;
15230;SDS011;32569;51.762;8.564;2023-05-20T03:01:05;3.10;;;2.80;;
15230;SDS011;32569;51.762;8.564;2023-05-20T03:03:32;3.27;;;2.97;;
15230;SDS011;32569;51.762;8.564;2023-05-20T03:06:06;3.17;;;2.90;;
15230;SDS011;32569;51.762;8.564;2023-05-20T03:08:32;3.10;;;2.80;;
15230;SDS011;32569;51.762;8.564;2023-05-20T03:11:00;3.33;;;2.57;;
15230;SDS011;32569;51.762;8.564;2023-05-20T03:13:27;3.30;;;3.00;;
15230;SDS011;32569;51.762;8.564;2023-05-20T03:15:53;3.30;;;2.60;;
15230;SDS011;32569;51.762;8.564;2023-05-20T03:18:20;3.80;;;3.33;;
15230;SDS011;32569;51.762;8.564;2023-05-20T03:20:46;3.10;;;2.80;;
15230;SDS011;32569;51.762;8.564;2023-05-20T03:23:14;3.47;;;2.90;;
15230;SDS011;32569;51.762;8.564;2023-05-20T03:25:41;2.77;;;2.57;;
15230;SDS011;32569;51.762;8.564;2023-05-20T03:28:08;4.90;;;3.13;;
15230;SDS011;32569;51.762;8.564;2023-05-20T03:30:34;3.40;;;3.10;;
15230;SDS011;32569;51.762;8.564;2023-05-20T03:33:01;4.33;;;3.13;;
15230;SDS011;32569;51.762;8.564;2023-05-20T03:35:29;3.63;;;2.53;;
15230;SDS011;32569;51.762;8.564;2023-05-20T03:37:56;4.20;;;3.10;;
15230;SDS011;32569;51.762;8.564;2023-05-20T03:40:26;4.83;;;3.13;;
15230;SDS011;32569;51.762;8.564;2023-05-20T03:42:53;3.40;;;3.10;;
15230;SDS011;32569;51.762;8.564;2023-05-20T03:45:20;3.73;;;3.17;;
15230;SDS011;32569;51.762;8.564;2023-05-20T03:47:47;3.17;;;2.90;;
15230;SDS011;32569;51.762;8.564;2023-05-20T03:50:14;3.73;;;3.13;;
15230;SDS011;32569;51.762;8.564;2023-05-20T03:52:41;3.93;;;3.20;;
15230;SDS011;32569;51.762;8.564;2023-05-20T03:55:08;3.43;;;3.13;;
15230;SDS011;32569;51.762;8.564;2023-05-20T03:57:36;3.53;;;3.17;;
15230;SDS011;32569;51.762;8.564;2023-05-20T04:00:03;3.93;;;3.57;;
15230;SDS011;32569;51.762;8.564;2023-05-20T04:02:34;4.87;;;3.40;;
15230;SDS011;32569;51.762;8.564;2023-05-20T04:05:01;4.37;;;3.20;;
15230;SDS011;32569;51.762;8.564;2023-05-20T04:07:28;4.40;;;3.23;;
15230;SDS011;32569;51.762;8.564;2023-05-20T04:09:54;3.40;;;3.10;;
15230;SDS011;32569;51.762;8.564;2023-05-20T04:12:22;4.73;;;3.27;;
15230;SDS011;32569;51.762;8.564;2023-05-20T04:14:51;3.47;;;3.17;;
15230;SDS011;32569;51.762;8.564;2023-05-20T04:17:22;3.20;;;2.90;;
15230;SDS011;32569;51.762;8.564;2023-05-20T04:19:49;4.20;;;3.53;;
15230;SDS011;32569;51.762;8.564;2023-05-20T04:22:18;4.67;;;3.20;;
15230;SDS011;32569;51.762;8.564;2023-05-20T04:24:48;4.37;;;3.00;;
15230;SDS011;32569;51.762;8.564;2023-05-20T04:27:15;3.80;;;3.40;;
15230;SDS011;32569;51.762;8.564;2023-05-20T04:29:41;3.50;;;3.20;;
15230;SDS011;32569;51.762;8.564;2023-05-20T04:32:11;3.80;;;3.50;;
15230;SDS011;32569;51.762;8.564;2023-05-20T04:34:38;3.60;;;3.30;;
15230;SDS011;32569;51.762;8.564;2023-05-20T04:37:04;3.93;;;3.43;;
15230;SDS011;32569;51.762;8.564;2023-05-20T04:39:31;4.57;;;3.40;;
15230;SDS011;32569;51.762;8.564;2023-05-20T04:41:59;4.37;;;3.50;;
15230;SDS011;32569;51.762;8.564;2023-05-20T04:44:26;5.17;;;3.80;;
15230;SDS011;32569;51.762;8.564;2023-05-20T04:46:53;3.40;;;3.10;;
15230;SDS011;32569;51.762;8.564;2023-05-20T04:49:23;3.60;;;3.30;;
15230;SDS011;32569;51.762;8.564;2023-05-20T04:51:50;4.07;;;3.60;;
15230;SDS011;32569;51.762;8.564;2023-05-20T04:54:19;4.17;;;3.40;;
15230;SDS011;32569;51.762;8.564;2023-05-20T04:56:46;3.83;;;3.40;;
15230;SDS011;32569;51.762;8.564;2023-05-20T04:59:12;5.00;;;3.47;;
15230;SDS011;32569;51.762;8.564;2023-05-20T05:01:39;4.30;;;3.73;;
15230;SDS011;32569;51.762;8.564;2023-05-20T05:04:06;4.70;;;3.13;;
15230;SDS011;32569;51.762;8.564;2023-05-20T05:06:34;4.03;;;3.73;;
15230;SDS011;32569;51.762;8.564;2023-05-20T05:09:00;4.17;;;3.77;;
15230;SDS011;32569;51.762;8.564;2023-05-20T05:11:27;3.70;;;3.40;;
15230;SDS011;32569;51.762;8.564;2023-05-20T05:13:54;4.37;;;3.97;;
15230;SDS011;32569;51.762;8.564;2023-05-20T05:16:20;4.03;;;3.43;;
15230;SDS011;32569;51.762;8.564;2023-05-20T05:18:47;3.73;;;3.30;;
15230;SDS011;32569;51.762;8.564;2023-05-20T05:21:14;3.57;;;3.27;;
15230;SDS011;32569;51.762;8.564;2023-05-20T05:23:42;4.23;;;3.83;;
15230;SDS011;32569;51.762;8.564;2023-05-20T05:26:09;4.17;;;3.70;;
15230;SDS011;32569;51.762;8.564;2023-05-20T05:28:36;4.87;;;3.73;;
15230;SDS011;32569;51.762;8.564;2023-05-20T05:31:03;4.50;;;4.10;;
15230;SDS011;32569;51.762;8.564;2023-05-20T05:33:31;4.27;;;3.80;;
15230;SDS011;32569;51.762;8.564;2023-05-20T05:35:57;5.07;;;3.90;;
15230;SDS011;32569;51.762;8.564;2023-05-20T05:38:25;5.83;;;4.33;;
15230;SDS011;32569;51.762;8.564;2023-05-20T05:40:53;7.63;;;4.63;;
15230;SDS011;32569;51.762;8.564;2023-05-20T05:43:20;5.03;;;4.50;;
15230;SDS011;32569;51.762;8.564;2023-05-20T05:45:46;4.90;;;4.47;;
15230;SDS011;32569;51.762;8.564;2023-05-20T05:48:13;5.53;;;4.87;;
15230;SDS011;32569;51.762;8.564;2023-05-20T05:50:42;5.23;;;4.70;;
15230;SDS011;32569;51.762;8.564;2023-05-20T05:53:09;6.10;;;4.77;;
15230;SDS011;32569;51.762;8.564;2023-05-20T05:55:36;5.57;;;5.07;;
15230;SDS011;32569;51.762;8.564;2023-05-20T05:58:04;7.33;;;5.47;;
15230;SDS011;32569;51.762;8.564;2023-05-20T06:00:30;6.03;;;5.37;;
15230;SDS011;32569;51.762;8.564;2023-05-20T06:02:57;6.83;;;5.77;;
15230;SDS011;32569;51.762;8.564;2023-05-20T06:05:24;7.87;;;5.13;;
15230;SDS011;32569;51.762;8.564;2023-05-20T06:07:50;6.27;;;5.67;;
15230;SDS011;32569;51.762;8.564;2023-05-20T06:10:17;7.20;;;5.77;;
15230;SDS011;32569;51.762;8.564;2023-05-20T06:12:44;7.07;;;5.57;;
15230;SDS011;32569;51.762;8.564;2023-05-20T06:15:12;6.37;;;5.77;;
15230;SDS011;32569;51.762;8.564;2023-05-20T06:17:38;5.77;;;5.27;;
15230;SDS011;32569;51.762;8.564;2023-05-20T06:20:06;6.20;;;5.60;;
15230;SDS011;32569;51.762;8.564;2023-05-20T06:22:33;6.70;;;5.93;;
15230;SDS011;32569;51.762;8.564;2023-05-20T06:24:59;6.87;;;6.23;;
15230;SDS011;32569;51.762;8.564;2023-05-20T06:27:26;7.90;;;7.20;;
15230;SDS011;32569;51.762;8.564;2023-05-20T06:29:53;7.00;;;6.30;;
15230;SDS011;32569;51.762;8.564;2023-05-20T06:32:21;7.37;;;6.67;;
15230;SDS011;32569;51.762;8.564;2023-05-20T06:34:47;8.43;;;6.17;;
15230;SDS011;32569;51.762;8.564;2023-05-20T06:37:14;8.00;;;6.77;;
15230;SDS011;32569;51.762;8.564;2023-05-20T06:39:41;8.60;;;6.97;;
15230;SDS011;32569;51.762;8.564;2023-05-20T06:42:07;9.07;;;6.67;;
15230;SDS011;32569;51.762;8.564;2023-05-20T06:44:34;8.03;;;6.67;;
15230;SDS011;32569;51.762;8.564;2023-05-20T06:47:00;9.00;;;7.00;;
15230;SDS011;32569;51.762;8.564;2023-05-20T06:49:28;7.47;;;6.73;;
15230;SDS011;32569;51.762;8.564;2023-05-20T06:51:55;7.90;;;7.10;;
15230;SDS011;32569;51.762;8.564;2023-05-20T06:54:21;8.37;;;7.57;;
15230;SDS011;32569;51.762;8.564;2023-05-20T06:56:48;9.43;;;8.50;;
15230;SDS011;32569;51.762;8.564;2023-05-20T06:59:15;10.07;;;9.03;;
15230;SDS011;32569;51.762;8.564;2023-05-20T07:01:41;9.70;;;8.43;;
15230;SDS011;32569;51.762;8.564;2023-05-20T07:04:08;9.27;;;8.27;;
15230;SDS011;32569;51.762;8.564;2023-05-20T07:06:36;9.40;;;7.20;;
15230;SDS011;32569;51.762;8.564;2023-05-20T07:09:03;8.50;;;7.67;;
15230;SDS011;32569;51.762;8.564;2023-05-20T07:11:30;9.10;;;7.73;;
15230;SDS011;32569;51.762;8.564;2023-05-20T07:13:57;9.37;;;8.03;;
15230;SDS011;32569;51.762;8.564;2023-05-20T07:16:23;8.70;;;7.80;;
15230;SDS011;32569;51.762;8.564;2023-05-20T07:18:50;8.73;;;7.83;;
15230;SDS011;32569;51.762;8.564;2023-05-20T07:21:17;8.17;;;7.37;;
15230;SDS011;32569;51.762;8.564;2023-05-20T07:23:45;9.33;;;8.30;;
15230;SDS011;32569;51.762;8.564;2023-05-20T07:26:12;9.50;;;7.87;;
15230;SDS011;32569;51.762;8.564;2023-05-20T07:28:42;9.97;;;7.67;;
15230;SDS011;32569;51.762;8.564;2023-05-20T07:31:09;9.57;;;6.97;;
15230;SDS011;32569;51.762;8.564;2023-05-20T07:33:36;9.17;;;8.07;;
15230;SDS011;32569;51.762;8.564;2023-05-20T07:36:02;8.40;;;7.57;;
15230;SDS011;32569;51.762;8.564;2023-05-20T07:38:29;7.97;;;6.73;;
15230;SDS011;32569;51.762;8.564;2023-05-20T07:40:57;7.77;;;6.93;;
15230;SDS011;32569;51.762;8.564;2023-05-20T07:43:24;8.47;;;7.20;;
15230;SDS011;32569;51.762;8.564;2023-05-20T07:45:51;8.60;;;7.70;;
15230;SDS011;32569;51.762;8.564;2023-05-20T07:48:18;8.23;;;7.43;;
15230;SDS011;32569;51.762;8.564;2023-05-20T07:50:44;8.00;;;7.20;;
15230;SDS011;32569;51.762;8.564;2023-05-20T07:53:11;9.07;;;7.70;;
15230;SDS011;32569;51.762;8.564;2023-05-20T07:55:38;8.50;;;7.60;;
15230;SDS011;32569;51.762;8.564;2023-05-20T07:58:06;8.80;;;7.90;;
15230;SDS011;32569;51.762;8.564;2023-05-20T08:00:39;9.17;;;7.40;;
15230;SDS011;32569;51.762;8.564;2023-05-20T08:03:05;8.10;;;7.30;;
15230;SDS011;32569;51.762;8.564;2023-05-20T08:05:32;9.43;;;6.83;;
15230;SDS011;32569;51.762;8.564;2023-05-20T08:08:01;7.23;;;6.33;;
15230;SDS011;32569;51.762;8.564;2023-05-20T08:10:28;7.37;;;6.27;;
15230;SDS011;32569;51.762;8.564;2023-05-20T08:12:55;7.03;;;6.13;;
15230;SDS011;32569;51.762;8.564;2023-05-20T08:15:23;7.47;;;5.83;;
15230;SDS011;32569;51.762;8.564;2023-05-20T08:17:50;6.20;;;5.53;;
15230;SDS011;32569;51.762;8.564;2023-05-20T08:20:16;6.03;;;5.43;;
15230;SDS011;32569;51.762;8.564;2023-05-20T08:22:43;6.47;;;5.70;;
15230;SDS011;32569;51.762;8.564;2023-05-20T08:25:09;6.47;;;5.43;;
15230;SDS011;32569;51.762;8.564;2023-05-20T08:27:36;5.67;;;5.07;;
15230;SDS011;32569;51.762;8.564;2023-05-20T08:30:03;5.53;;;4.60;;
15230;SDS011;32569;51.762;8.564;2023-05-20T08:32:33;5.40;;;4.90;;
15230;SDS011;32569;51.762;8.564;2023-05-20T08:35:00;5.73;;;4.90;;
15230;SDS011;32569;51.762;8.564;2023-05-20T08:37:27;8.27;;;5.30;;
15230;SDS011;32569;51.762;8.564;2023-05-20T08:39:54;6.00;;;5.40;;
15230;SDS011;32569;51.762;8.564;2023-05-20T08:42:21;6.57;;;5.40;;
15230;SDS011;32569;51.762;8.564;2023-05-20T08:44:48;10.60;;;9.50;;
15230;SDS011;32569;51.762;8.564;2023-05-20T08:47:16;11.53;;;7.97;;
15230;SDS011;32569;51.762;8.564;2023-05-20T08:49:46;5.60;;;5.10;;
15230;SDS011;32569;51.762;8.564;2023-05-20T08:52:12;5.60;;;4.40;;
15230;SDS011;32569;51.762;8.564;2023-05-20T08:54:42;5.37;;;4.70;;
15230;SDS011;32569;51.762;8.564;2023-05-20T08:57:10;5.33;;;4.83;;
15230;SDS011;32569;51.762;8.564;2023-05-20T08:59:37;5.27;;;4.77;;
15230;SDS011;32569;51.762;8.564;2023-05-20T09:02:06;5.77;;;4.23;;
15230;SDS011;32569;51.762;8.564;2023-05-20T09:04:34;4.90;;;4.30;;
15230;SDS011;32569;51.762;8.564;2023-05-20T09:07:02;4.50;;;4.10;;
15230;SDS011;32569;51.762;8.564;2023-05-20T09:09:29;5.07;;;4.33;;
15230;SDS011;32569;51.762;8.564;2023-05-20T09:11:56;5.10;;;4.60;;
15230;SDS011;32569;51.762;8.564;2023-05-20T09:14:22;5.40;;;4.30;;
15230;SDS011;32569;51.762;8.564;2023-05-20T09:16:51;4.83;;;4.37;;
15230;SDS011;32569;51.762;8.564;2023-05-20T09:19:18;4.90;;;4.50;;
15230;SDS011;32569;51.762;8.564;2023-05-20T09:21:45;4.90;;;4.43;;
15230;SDS011;32569;51.762;8.564;2023-05-20T09:24:13;5.77;;;4.40;;
15230;SDS011;32569;51.762;8.564;2023-05-20T09:26:40;4.83;;;3.90;;
15230;SDS011;32569;51.762;8.564;2023-05-20T09:29:07;4.80;;;4.30;;
15230;SDS011;32569;51.762;8.564;2023-05-20T09:31:34;4.33;;;3.83;;
15230;SDS011;32569;51.762;8.564;2023-05-20T09:34:02;5.03;;;4.30;;
15230;SDS011;32569;51.762;8.564;2023-05-20T09:36:29;4.67;;;3.83;;
15230;SDS011;32569;51.762;8.564;2023-05-20T09:38:59;4.63;;;4.23;;
15230;SDS011;32569;51.762;8.564;2023-05-20T09:41:32;5.43;;;4.53;;
15230;SDS011;32569;51.762;8.564;2023-05-20T09:44:00;5.13;;;4.40;;
15230;SDS011;32569;51.762;8.564;2023-05-20T09:46:28;5.13;;;4.20;;
15230;SDS011;32569;51.762;8.564;2023-05-20T09:48:55;6.03;;;4.17;;
15230;SDS011;32569;51.762;8.564;2023-05-20T09:51:22;5.60;;;4.23;;
15230;SDS011;32569;51.762;8.564;2023-05-20T09:53:49;6.23;;;4.37;;
15230;SDS011;32569;51.762;8.564;2023-05-20T09:56:18;6.13;;;4.17;;
15230;SDS011;32569;51.762;8.564;2023-05-20T09:58:47;5.00;;;4.60;;
15230;SDS011;32569;51.762;8.564;2023-05-20T10:01:16;5.53;;;4.70;;
15230;SDS011;32569;51.762;8.564;2023-05-20T10:03:43;4.50;;;4.10;;
15230;SDS011;32569;51.762;8.564;2023-05-20T10:06:16;4.97;;;4.47;;
15230;SDS011;32569;51.762;8.564;2023-05-20T10:08:57;5.53;;;4.33;;
15230;SDS011;32569;51.762;8.564;2023-05-20T10:11:34;5.30;;;4.37;;
15230;SDS011;32569;51.762;8.564;2023-05-20T10:17:15;4.80;;;4.40;;
15230;SDS011;32569;51.762;8.564;2023-05-20T10:19:46;4.97;;;4.43;;
15230;SDS011;32569;51.762;8.564;2023-05-20T10:22:14;5.43;;;4.40;;
15230;SDS011;32569;51.762;8.564;2023-05-20T10:24:56;5.83;;;5.10;;
15230;SDS011;32569;51.762;8.564;2023-05-20T10:27:23;4.90;;;4.10;;
15230;SDS011;32569;51.762;8.564;2023-05-20T10:29:52;4.63;;;4.23;;
15230;SDS011;32569;51.762;8.564;2023-05-20T10:32:24;5.07;;;4.67;;
15230;SDS011;32569;51.762;8.564;2023-05-20T10:34:52;5.00;;;4.50;;
15230;SDS011;32569;51.762;8.564;2023-05-20T10:37:23;5.47;;;4.97;;
15230;SDS011;32569;51.762;8.564;2023-05-20T10:39:51;4.87;;;4.47;;
15230;SDS011;32569;51.762;8.564;2023-05-20T10:42:29;4.80;;;4.30;;
15230;SDS011;32569;51.762;8.564;2023-05-20T10:44:57;4.87;;;4.47;;
15230;SDS011;32569;51.762;8.564;2023-05-20T10:47:23;4.90;;;4.20;;
15230;SDS011;32569;51.762;8.564;2023-05-20T10:49:50;4.57;;;3.70;;
15230;SDS011;32569;51.762;8.564;2023-05-20T10:52:17;5.20;;;4.20;;
15230;SDS011;32569;51.762;8.564;2023-05-20T10:54:45;5.07;;;4.30;;
15230;SDS011;32569;51.762;8.564;2023-05-20T10:57:12;4.90;;;4.20;;
15230;SDS011;32569;51.762;8.564;2023-05-20T10:59:39;4.73;;;4.33;;
15230;SDS011;32569;51.762;8.564;2023-05-20T11:02:08;4.70;;;4.27;;
15230;SDS011;32569;51.762;8.564;2023-05-20T11:04:37;4.67;;;4.27;;
15230;SDS011;32569;51.762;8.564;2023-05-20T11:07:04;4.80;;;4.33;;
15230;SDS011;32569;51.762;8.564;2023-05-20T11:09:31;4.07;;;3.77;;
15230;SDS011;32569;51.762;8.564;2023-05-20T11:11:58;4.60;;;4.20;;
15230;SDS011;32569;51.762;8.564;2023-05-20T11:14:26;4.67;;;4.17;;
15230;SDS011;32569;51.762;8.564;2023-05-20T11:16:55;4.13;;;3.83;;
15230;SDS011;32569;51.762;8.564;2023-05-20T11:19:23;4.63;;;4.13;;
15230;SDS011;32569;51.762;8.564;2023-05-20T11:21:50;4.20;;;3.90;;
15230;SDS011;32569;51.762;8.564;2023-05-20T11:24:21;4.60;;;4.13;;
15230;SDS011;32569;51.762;8.564;2023-05-20T11:26:50;4.37;;;3.90;;
15230;SDS011;32569;51.762;8.564;2023-05-20T11:29:17;4.90;;;4.20;;
15230;SDS011;32569;51.762;8.564;2023-05-20T11:31:46;4.33;;;3.93;;
15230;SDS011;32569;51.762;8.564;2023-05-20T11:34:14;4.90;;;4.33;;
15230;SDS011;32569;51.762;8.564;2023-05-20T11:36:42;4.43;;;4.07;;
15230;SDS011;32569;51.762;8.564;2023-05-20T11:39:08;4.50;;;4.10;;
15230;SDS011;32569;51.762;8.564;2023-05-20T11:41:35;5.43;;;3.77;;
15230;SDS011;32569;51.762;8.564;2023-05-20T11:44:03;4.40;;;3.93;;
15230;SDS011;32569;51.762;8.564;2023-05-20T11:46:30;4.40;;;4.00;;
15230;SDS011;32569;51.762;8.564;2023-05-20T11:48:56;4.40;;;4.00;;
15230;SDS011;32569;51.762;8.564;2023-05-20T11:51:23;3.90;;;3.60;;
15230;SDS011;32569;51.762;8.564;2023-05-20T11:53:53;4.03;;;3.63;;
15230;SDS011;32569;51.762;8.564;2023-05-20T11:56:25;5.00;;;3.60;;
15230;SDS011;32569;51.762;8.564;2023-05-20T11:58:54;4.50;;;4.10;;
15230;SDS011;32569;51.762;8.564;2023-05-20T12:01:22;4.70;;;4.20;;
15230;SDS011;32569;51.762;8.564;2023-05-20T12:03:48;6.17;;;4.57;;
15230;SDS011;32569;51.762;8.564;2023-05-20T12:06:15;4.43;;;3.63;;
15230;SDS011;32569;51.762;8.564;2023-05-20T12:08:42;4.50;;;4.10;;
15230;SDS011;32569;51.762;8.564;2023-05-20T12:11:10;5.80;;;3.77;;
15230;SDS011;32569;51.762;8.564;2023-05-20T12:13:37;4.03;;;3.63;;
15230;SDS011;32569;51.762;8.564;2023-05-20T12:16:04;4.70;;;3.73;;
15230;SDS011;32569;51.762;8.564;2023-05-20T12:18:31;7.43;;;3.80;;
15230;SDS011;32569;51.762;8.564;2023-05-20T12:20:58;3.97;;;3.67;;
15230;SDS011;32569;51.762;8.564;2023-05-20T12:23:25;4.40;;;4.10;;
15230;SDS011;32569;51.762;8.564;2023-05-20T12:25:53;5.37;;;4.27;;
15230;SDS011;32569;51.762;8.564;2023-05-20T12:28:21;4.50;;;4.00;;
15230;SDS011;32569;51.762;8.564;2023-05-20T12:30:51;4.70;;;4.30;;
15230;SDS011;32569;51.762;8.564;2023-05-20T12:33:17;5.20;;;4.57;;
15230;SDS011;32569;51.762;8.564;2023-05-20T12:35:44;4.73;;;4.33;;
15230;SDS011;32569;51.762;8.564;2023-05-20T12:38:11;5.13;;;4.60;;
15230;SDS011;32569;51.762;8.564;2023-05-20T12:40:37;5.70;;;5.00;;
15230;SDS011;32569;51.762;8.564;2023-05-20T12:43:04;4.60;;;4.20;;
15230;SDS011;32569;51.762;8.564;2023-05-20T12:45:33;5.17;;;4.63;;
15230;SDS011;32569;51.762;8.564;2023-05-20T12:48:00;4.70;;;4.30;;
15230;SDS011;32569;51.762;8.564;2023-05-20T12:50:27;4.23;;;3.83;;
15230;SDS011;32569;51.762;8.564;2023-05-20T12:52:54;4.50;;;4.10;;
15230;SDS011;32569;51.762;8.564;2023-05-20T12:55:20;4.67;;;4.27;;
15230;SDS011;32569;51.762;8.564;2023-05-20T12:57:47;4.90;;;4.30;;
15230;SDS011;32569;51.762;8.564;2023-05-20T13:00:14;6.40;;;4.37;;
15230;SDS011;32569;51.762;8.564;2023-05-20T13:02:43;4.67;;;4.23;;
15230;SDS011;32569;51.762;8.564;2023-05-20T13:05:10;4.63;;;4.23;;
15230;SDS011;32569;51.762;8.564;2023-05-20T13:07:37;4.13;;;3.73;;
15230;SDS011;32569;51.762;8.564;2023-05-20T13:10:04;4.27;;;3.90;;
15230;SDS011;32569;51.762;8.564;2023-05-20T13:12:32;4.20;;;3.80;;
15230;SDS011;32569;51.762;8.564;2023-05-20T13:14:59;3.77;;;3.47;;
15230;SDS011;32569;51.762;8.564;2023-05-20T13:17:26;3.67;;;3.37;;
15230;SDS011;32569;51.762;8.564;2023-05-20T13:19:54;4.77;;;4.33;;
15230;SDS011;32569;51.762;8.564;2023-05-20T13:22:21;4.23;;;3.83;;
15230;SDS011;32569;51.762;8.564;2023-05-20T13:24:47;3.90;;;3.53;;
15230;SDS011;32569;51.762;8.564;2023-05-20T13:27:14;4.07;;;3.77;;
15230;SDS011;32569;51.762;8.564;2023-05-20T13:29:41;3.97;;;3.67;;
15230;SDS011;32569;51.762;8.564;2023-05-20T13:32:08;5.77;;;4.30;;
15230;SDS011;32569;51.762;8.564;2023-05-20T13:34:35;4.50;;;4.10;;
15230;SDS011;32569;51.762;8.564;2023-05-20T13:37:04;4.90;;;4.50;;
15230;SDS011;32569;51.762;8.564;2023-05-20T13:39:31;4.73;;;4.20;;
15230;SDS011;32569;51.762;8.564;2023-05-20T13:41:57;5.23;;;4.73;;
15230;SDS011;32569;51.762;8.564;2023-05-20T13:44:24;4.90;;;4.50;;
15230;SDS011;32569;51.762;8.564;2023-05-20T13:46:51;4.57;;;4.17;;
15230;SDS011;32569;51.762;8.564;2023-05-20T13:49:18;4.53;;;4.17;;
15230;SDS011;32569;51.762;8.564;2023-05-20T13:51:45;4.77;;;4.37;;
15230;SDS011;32569;51.762;8.564;2023-05-20T13:54:14;4.70;;;4.23;;
15230;SDS011;32569;51.762;8.564;2023-05-20T13:56:40;4.70;;;4.40;;
15230;SDS011;32569;51.762;8.564;2023-05-20T13:59:07;4.70;;;4.23;;
15230;SDS011;32569;51.762;8.564;2023-05-20T14:01:34;4.60;;;4.20;;
15230;SDS011;32569;51.762;8.564;2023-05-20T14:04:01;4.73;;;4.33;;
15230;SDS011;32569;51.762;8.564;2023-05-20T14:06:28;4.83;;;4.33;;
15230;SDS011;32569;51.762;8.564;2023-05-20T14:08:56;4.93;;;4.47;;
15230;SDS011;32569;51.762;8.564;2023-05-20T14:11:24;4.63;;;4.23;;
15230;SDS011;32569;51.762;8.564;2023-05-20T14:13:50;4.90;;;4.60;;
15230;SDS011;32569;51.762;8.564;2023-05-20T14:16:17;4.80;;;4.40;;
15230;SDS011;32569;51.762;8.564;2023-05-20T14:18:44;6.60;;;4.60;;
15230;SDS011;32569;51.762;8.564;2023-05-20T14:21:10;5.43;;;5.03;;
15230;SDS011;32569;51.762;8.564;2023-05-20T14:23:37;5.57;;;5.03;;
15230;SDS011;32569;51.762;8.564;2023-05-20T14:26:08;5.30;;;4.87;;
15230;SDS011;32569;51.762;8.564;2023-05-20T14:28:36;5.30;;;4.90;;
15230;SDS011;32569;51.762;8.564;2023-05-20T14:31:03;6.10;;;5.30;;
15230;SDS011;32569;51.762;8.564;2023-05-20T14:33:29;6.03;;;5.37;;
15230;SDS011;32569;51.762;8.564;2023-05-20T14:35:56;5.87;;;5.33;;
15230;SDS011;32569;51.762;8.564;2023-05-20T14:38:23;6.07;;;5.33;;
15230;SDS011;32569;51.762;8.564;2023-05-20T14:40:50;6.03;;;5.53;;
15230;SDS011;32569;51.762;8.564;2023-05-20T14:43:17;6.30;;;5.70;;
15230;SDS011;32569;51.762;8.564;2023-05-20T14:45:45;6.30;;;5.70;;
15230;SDS011;32569;51.762;8.564;2023-05-20T14:48:13;6.60;;;6.10;;
15230;SDS011;32569;51.762;8.564;2023-05-20T14:50:40;6.60;;;6.00;;
15230;SDS011;32569;51.762;8.564;2023-05-20T14:53:06;5.90;;;5.40;;